EPHEPHRATA MUNI
METARs for airports near EPH, sorted by distance:
N 0 nm 1276' KEPH 222253Z 01010KT 10SM BKN006 M01/M03 A3055
SE 10 nm 1188' KMWH 222252Z 04003KT 10SM OVC006 01/M02 A3056
W 28 nm 1248' KEAT 222155Z 10007KT 10SM CLR M02/M04 A3054
W 44 nm 1763' KELN 222253Z 00000KT 10SM CLR 00/M05 A3051
S 60 nm 394' KRLD 222235Z 04003KT 10SM CLR 05/01 A3058
SW 61 nm 1098' KYKM 222253Z 00000KT 10SM CLR 04/M03 A3053
S 64 nm 410' KPSC 222253Z 35007KT 10SM CLR 05/00 A3058
N 69 nm 1304' KOMK 222253Z 00000KT 1/4SM FZFG VV002 M04/M06 A3057
E 77 nm 2462' KSKA 222250Z 02005KT 10SM OVC005 01/00 A3049
E 82 nm 2385' KGEG 222253Z 04006KT 1SM BR SCT003 OVC012 01/M01 A3050
SE 88 nm 1194' KALW 222253Z 29005KT 2 1/2SM BR SCT002 02/02 A3052
S 89 nm 644' KHRI 222253Z 19003KT 7SM BKN004 02/01 A3055
E 91 nm 1956' KSFF 222253Z 00000KT 7SM OVC018 02/01 A3053
NE 93 nm 2210' KDEW 222253Z 05003KT 10SM OVC013 02/M01 A3052
TAFs for airports near EPH, sorted by distance:
SE 10 nm 1188' KMWH KMWH 222047Z 2221/2318 33004KT 1/4SM FZFG VV002
  TEMPO 2223/2303 1/2SM FZFG OVC002
  FM230400 35004KT 1/4SM FZFG VV001
W 28 nm 1248' KEAT TAF COR KEAT 221749Z 2218/2318 VRB04KT 3SM BR SCT001
  TEMPO 2218/2221 1/4SM FZFG VV001
  FM222200 VRB03KT 6SM BR FEW250
  FM230200 VRB02KT 1/4SM FZFG VV002
SW 61 nm 1098' KYKM KYKM 221738Z 2218/2318 VRB04KT P6SM FEW250
  FM230800 28004KT 4SM BR SCT001 SCT200
  FM231400 29002KT 1SM BR BKN005
S 64 nm 410' KPSC TAF
  AMD KPSC 222125Z 2221/2318 VRB04KT P6SM SCT010
  FM230300 VRB04KT 4SM BR SCT002
  FM230500 VRB04KT 1/2SM FZFG BKN002
E 77 nm 2462' KSKA TAF
  AMD KSKA 222130Z 2221/2401 06006KT 6000 BR OVC005 620055 QNH3051INS
  TEMPO 2222/2201 OVC008 620084
  BECMG 2303/2304 02005KT 0400 FZFG VV001 620013 QNH3043INS
  BECMG 2311/2312 07004KT 1200 BR BKN004 620043 QNH3030INS TX01/2221Z TNM03/2313Z
E 82 nm 2385' KGEG TAF KGEG 221750Z 2218/2318 00000KT 1/2SM FZFG VV002
  FM222100 00000KT 2SM BR BKN003
  FM230230 00000KT 1/4SM FZFG VV002
SE 88 nm 1194' KALW TAF
  AMD KALW 222122Z 2221/2318 VRB04KT 1/2SM FG VV002
  TEMPO 2221/2301 3SM BR OVC005
  FM230400 VRB03KT 1/2SM FZFG VV002
E 91 nm 1956' KSFF KSFF 221739Z 2218/2318 00000KT 1/4SM FZFG VV002
  FM222000 00000KT 3/4SM BR OVC003
  FM222200 00000KT 6SM BR BKN005
  FM230300 00000KT 1/2SM FZFG OVC003

Shortcut to this page: http://wxbay.com.

Data may contain errors.